Content
SEND FEEDBACK

Daily
Averages
Monthly
Summary
United Kingdom

LONDON, ENGLAND


Home > Europe > United Kingdom > England
Elevation: 203 feet     Latitude: 51 09N     Longitude: 000 11W

WEATHER
 
SELECT A DAY
Number of Records: 294,628;   Date Range: 7/1/96 - 9/20/14
 
SHARE

PRINT THIS DATA

[ ← Previous Day ]
WEATHER ALMANAC - FEBRUARY 8, 2014
[ Next Day → ]
[ °C ]   °F
Weather ElementAverageHighLow
Temperature45.8 °F48.2 °F (2:50 am)42.8 °F (10:50 am)
Dewpoint39.7 °F44.6 °F (1:20 am)33.8 °F (11:20 pm)
Humidity79.4 %93 % (1:20 am)66 % (9:50 am)
Barometer28.94 in29.12 in (12:50 am)28.88 in (3:50 pm)
Wind Speed17.8 mph24.2 mph (6:20 pm)
Wind Gust39.1 mph (6:20 pm)
Weather ElementAverage
Visibility5.4 mi
Wind DirectionSSW (209.4 °)

Weather ElementTotal
Precipitation---
Heating Degree Days19.5 (Base 65)
Averaged from 47 records on February 8, 2014
WEATHER CONDITIONS BREAKOUT
WIND DIRECTION BREAKOUT
WEATHER BY HOUR - FEBRUARY 8, 2014
[ °C ]   °F
Local TimeTemperatureDewpointHumidityBarometerVisibilityWind DirectionWind SpeedGust SpeedPrecipitationEventsConditions
12:50 AM46.4 °F42.8 °F87 %29.12 in3.1 miSouth (180°)18.4 mph33.4 mphRainRain
1:20 AM46.4 °F44.6 °F93 %29.06 in3.7 miSouth (180°)18.4 mph31.1 mphRainRain
1:50 AM46.4 °F44.6 °F93 %29.06 in2.8 miSouth (180°)17.3 mph32.2 mphRainRain
2:20 AM46.4 °F44.6 °F93 %29.03 in2.5 miSouth (180°)20.7 mph34.5 mphRainRain
2:50 AM48.2 °F44.6 °F87 %29.00 in2.8 miSouth (190°)18.4 mph31.1 mphRainRain
3:20 AM48.2 °F44.6 °F87 %29.00 in2.8 miSouth (190°)20.7 mph33.4 mphRainRain
3:50 AM48.2 °F44.6 °F87 %28.97 in3.1 miSSW (210°)18.4 mph31.1 mphRainRain
4:20 AM48.2 °F44.6 °F87 %28.97 in6.2 miSSW (210°)17.3 mphScattered Clouds
4:50 AM48.2 °F44.6 °F87 %28.97 in6.2 miSSW (210°)17.3 mphMostly Cloudy
5:20 AM48.2 °F44.6 °F87 %28.94 in6.2 miSSW (200°)19.6 mph33.4 mphMostly Cloudy
5:50 AM48.2 °F44.6 °F87 %28.97 in5.6 miSSW (210°)15.0 mphRainLight Rain
6:20 AM48.2 °F42.8 °F82 %28.97 in5.6 miSSW (210°)13.8 mphMostly Cloudy
6:50 AM48.2 °F42.8 °F82 %28.94 in5.0 miSSW (210°)17.3 mphMostly Cloudy
7:20 AM46.4 °F42.8 °F87 %28.97 in6.2 miSW (230°)15.0 mphScattered Clouds
7:50 AM46.4 °F41.0 °F81 %28.97 in6.2 miSSW (210°)12.7 mphPartly Cloudy
8:20 AM46.4 °F39.2 °F76 %28.97 in6.2 miSSW (210°)13.8 mph25.3 mphPartly Cloudy
8:50 AM48.2 °F41.0 °F76 %28.94 in6.2 miSSW (200°)18.4 mph31.1 mphScattered Clouds
9:20 AM48.2 °F41.0 °F76 %28.94 in6.2 miSSW (210°)19.6 mphMostly Cloudy
9:50 AM48.2 °F37.4 °F66 %28.94 in6.2 miSW (220°)17.3 mphMostly Cloudy
10:20 AM48.2 °F37.4 °F66 %28.94 in5.0 miSSW (210°)17.3 mph28.8 mphRain-ThunderstormThunderstorms and Rain
10:50 AM42.8 °F37.4 °F81 %28.97 in6.2 miSW (220°)12.7 mphScattered Clouds
11:20 AM44.6 °F39.2 °F81 %28.94 in5.6 miSSW (200°)16.1 mph35.7 mphRainLight Rain
11:50 AM44.6 °F37.4 °F76 %28.94 in6.2 miSW (220°)16.1 mphScattered Clouds
12:20 PM44.6 °F35.6 °F71 %28.94 in6.2 miSSW (210°)20.7 mph35.7 mphScattered Clouds
12:50 PM46.4 °F37.4 °F71 %28.91 in6.2 miSW (220°)18.4 mph31.1 mphPartly Cloudy
1:20 PM46.4 °F37.4 °F71 %28.91 in6.2 miSW (220°)21.9 mph36.8 mphRainLight Rain
1:50 PM42.8 °F37.4 °F81 %28.91 in6.2 miSW (220°)19.6 mph34.5 mphScattered Clouds
2:20 PM44.6 °F37.4 °F76 %28.91 in6.2 miSSW (210°)19.6 mphMostly Cloudy
2:50 PM44.6 °F35.6 °F71 %28.91 in6.2 miSW (220°)23.0 mphScattered Clouds
3:20 PM46.4 °F35.6 °F66 %28.91 in6.2 miSSW (210°)21.9 mph34.5 mphPartly Cloudy
3:50 PM44.6 °F37.4 °F76 %28.88 in6.2 miSSW (210°)17.3 mph29.9 mphMostly Cloudy
4:20 PM44.6 °F37.4 °F76 %28.88 in5.0 miSSW (200°)19.6 mph32.2 mphRainLight Rain Showers
4:50 PM44.6 °F37.4 °F76 %28.88 in6.2 miSSW (210°)19.6 mph31.1 mphScattered Clouds
5:20 PM44.6 °F37.4 °F76 %28.88 in6.2 miSSW (210°)18.4 mph32.2 mphMostly Cloudy
5:50 PM44.6 °F37.4 °F76 %28.88 in4.3 miSSW (210°)21.9 mphRainLight Rain Showers
6:20 PM42.8 °F39.2 °F87 %28.88 in4.3 miSSW (210°)24.2 mph39.1 mphRainLight Rain
6:50 PM44.6 °F39.2 °F81 %28.88 in6.2 miSSW (200°)16.1 mphMostly Cloudy
7:20 PM42.8 °F39.2 °F87 %28.88 in5.6 miSW (220°)13.8 mphRainLight Rain
7:50 PM42.8 °F41.0 °F93 %28.88 in5.0 miSSW (210°)13.8 mphRainLight Rain
8:20 PM44.6 °F39.2 °F81 %28.88 in6.2 miSW (220°)13.8 mphScattered Clouds
8:50 PM44.6 °F39.2 °F81 %28.91 in5.6 miSW (220°)16.1 mphScattered Clouds
9:20 PM44.6 °F37.4 °F76 %28.91 in5.6 miSW (220°)18.4 mph32.2 mphRainLight Rain Showers
9:50 PM44.6 °F37.4 °F76 %28.91 in5.0 miSW (220°)16.1 mphMostly Cloudy
10:20 PM44.6 °F35.6 °F71 %28.91 in5.0 miSW (220°)15.0 mphMostly Cloudy
10:50 PM44.6 °F35.6 °F71 %28.94 in5.0 miSW (220°)18.4 mph29.9 mphMostly Cloudy
11:20 PM44.6 °F33.8 °F66 %28.94 in6.2 miSW (220°)19.6 mphMostly Cloudy
11:50 PM44.6 °F35.6 °F71 %28.94 in6.2 miSW (220°)18.4 mph32.2 mphMostly Cloudy
Hourly data recorded from EGKK, located miles away from London, England







STORIES FROM OUR PARTNERS